createdAt,value
2023-04-05T00:02:14.068Z,-0.27
2023-04-05T00:04:50.217Z,-0.30
2023-04-05T00:07:17.457Z,-0.32
2023-04-05T00:09:43.950Z,-0.33
2023-04-05T00:12:10.681Z,-0.35
2023-04-05T00:14:37.184Z,-0.36
2023-04-05T00:17:04.224Z,-0.39
2023-04-05T00:19:34.033Z,-0.57
2023-04-05T00:22:00.755Z,-0.50
2023-04-05T00:24:29.414Z,-0.43
2023-04-05T00:26:56.828Z,-0.45
2023-04-05T00:29:23.364Z,-0.48
2023-04-05T00:31:50.512Z,-0.49
2023-04-05T00:34:16.993Z,-0.63
2023-04-05T00:36:43.414Z,-0.54
2023-04-05T00:39:09.900Z,-0.51
2023-04-05T00:41:38.700Z,-0.57
2023-04-05T00:44:05.943Z,-0.53
2023-04-05T00:46:35.029Z,-0.55
2023-04-05T00:49:01.683Z,-0.65
2023-04-05T00:51:28.520Z,-0.60
2023-04-05T00:53:55.389Z,-0.62
2023-04-05T00:56:25.295Z,-0.64
2023-04-05T00:58:54.224Z,-0.66
2023-04-05T01:01:23.520Z,-0.77
2023-04-05T01:03:54.075Z,-0.67
2023-04-05T01:06:35.922Z,-0.68
2023-04-05T01:09:08.643Z,-0.67
2023-04-05T01:11:39.248Z,-0.69
2023-04-05T01:14:06.240Z,-0.98
2023-04-05T01:16:32.728Z,-0.79
2023-04-05T01:18:59.439Z,-0.76
2023-04-05T01:21:37.866Z,-0.77
2023-04-05T01:24:16.499Z,-0.80
2023-04-05T01:27:08.024Z,-0.81
2023-04-05T01:29:56.057Z,-0.83
2023-04-05T01:32:46.465Z,-0.87
2023-04-05T01:35:29.604Z,-1.02
2023-04-05T01:38:01.752Z,-0.95
2023-04-05T01:40:29.241Z,-0.90
2023-04-05T01:42:55.861Z,-0.92
2023-04-05T01:45:22.320Z,-0.92
2023-04-05T01:47:48.787Z,-0.94
2023-04-05T01:50:15.825Z,-1.02
2023-04-05T01:52:42.261Z,-1.17
2023-04-05T01:55:08.852Z,-1.14
2023-04-05T01:57:35.402Z,-1.15
2023-04-05T02:00:01.912Z,-1.04
2023-04-05T02:02:28.398Z,-1.04
2023-04-05T02:04:54.861Z,-1.07
2023-04-05T02:07:27.316Z,-1.26
2023-04-05T02:09:53.881Z,-1.25
2023-04-05T02:12:20.353Z,-1.27
2023-04-05T02:14:46.754Z,-1.20
2023-04-05T02:17:13.354Z,-1.32
2023-04-05T02:19:45.748Z,-1.27
2023-04-05T02:22:12.538Z,-1.17
2023-04-05T02:24:39.021Z,-1.18
2023-04-05T02:27:05.543Z,-1.21
2023-04-05T02:29:31.961Z,-1.23
2023-04-05T02:31:58.735Z,-1.18
2023-04-05T02:34:25.848Z,-1.21
2023-04-05T02:36:53.067Z,-1.18
2023-04-05T02:39:19.686Z,-1.26
2023-04-05T02:41:46.561Z,-1.17
2023-04-05T02:44:13.653Z,-1.17
2023-04-05T02:46:40.588Z,-1.16
2023-04-05T02:49:09.784Z,-1.15
2023-04-05T02:51:36.296Z,-1.16
2023-04-05T02:54:03.372Z,-1.24
2023-04-05T02:56:30.206Z,-1.17
2023-04-05T02:58:56.631Z,-1.24
2023-04-05T03:01:24.006Z,-1.19
2023-04-05T03:03:51.035Z,-1.21
2023-04-05T03:06:17.607Z,-1.34
2023-04-05T03:08:44.149Z,-1.24
2023-04-05T03:11:11.809Z,-1.26
2023-04-05T03:13:38.726Z,-1.28
2023-04-05T03:16:05.942Z,-1.31
2023-04-05T03:18:32.780Z,-1.30
2023-04-05T03:20:59.438Z,-1.32
2023-04-05T03:23:29.667Z,-1.34
2023-04-05T03:25:59.872Z,-1.35
2023-04-05T03:28:26.455Z,-1.30
2023-04-05T03:30:53.074Z,-1.35
2023-04-05T03:33:20.529Z,-1.36
2023-04-05T03:35:47.689Z,-1.35
2023-04-05T03:38:14.202Z,-1.38
2023-04-05T03:40:40.780Z,-1.53
2023-04-05T03:43:07.184Z,-1.30
2023-04-05T03:45:34.082Z,-1.30
2023-04-05T03:48:01.061Z,-1.33
2023-04-05T03:50:27.592Z,-1.31
2023-04-05T03:52:54.254Z,-1.35
2023-04-05T03:55:20.869Z,-1.40
2023-04-05T03:57:47.679Z,-1.36
2023-04-05T04:00:14.698Z,-1.39
2023-04-05T04:02:43.617Z,-1.40
2023-04-05T04:05:11.254Z,-1.50
2023-04-05T04:07:38.003Z,-1.46
2023-04-05T04:10:05.598Z,-1.47
2023-04-05T04:12:32.168Z,-1.62
2023-04-05T04:14:58.909Z,-1.58
2023-04-05T04:17:34.436Z,-1.53
2023-04-05T04:20:01.062Z,-1.52
2023-04-05T04:22:33.003Z,-1.62
2023-04-05T04:25:02.674Z,-1.51
2023-04-05T04:27:30.440Z,-1.52
2023-04-05T04:30:01.852Z,-1.54
2023-04-05T04:32:47.675Z,-1.52
2023-04-05T04:35:18.214Z,-1.56
2023-04-05T04:37:52.856Z,-1.50
2023-04-05T04:40:19.345Z,-1.48
2023-04-05T04:42:48.717Z,-1.42
2023-04-05T04:45:18.079Z,-1.37
2023-04-05T04:47:45.403Z,-1.32
2023-04-05T04:50:12.108Z,-1.63
2023-04-05T04:52:40.219Z,-1.38
2023-04-05T04:55:09.182Z,-1.15
2023-04-05T04:57:36.007Z,-1.11
2023-04-05T05:00:02.482Z,-0.99
2023-04-05T05:02:31.238Z,-0.91
2023-04-05T05:04:58.240Z,-0.86
2023-04-05T05:07:24.695Z,-0.87
2023-04-05T05:09:52.433Z,-0.64
2023-04-05T05:12:19.350Z,-0.53
2023-04-05T05:14:45.737Z,-0.45
2023-04-05T05:17:12.322Z,-0.31
2023-04-05T05:19:38.980Z,-0.20
2023-04-05T05:22:05.871Z,-0.10
2023-04-05T05:24:32.449Z,-0.01
2023-04-05T05:26:58.861Z,0.14
2023-04-05T05:29:25.602Z,0.16
2023-04-05T05:31:52.149Z,0.38
2023-04-05T05:34:19.298Z,0.31
2023-04-05T05:36:46.352Z,0.61
2023-04-05T05:39:12.909Z,0.72
2023-04-05T05:41:39.509Z,0.74
2023-04-05T05:44:06.764Z,0.88
2023-04-05T05:46:33.371Z,0.95
2023-04-05T05:48:59.801Z,1.03
2023-04-05T05:51:26.375Z,1.23
2023-04-05T05:53:52.819Z,1.49
2023-04-05T05:56:19.316Z,1.64
2023-04-05T05:58:46.376Z,1.62
2023-04-05T06:01:13.024Z,1.96
2023-04-05T06:03:39.641Z,2.09
2023-04-05T06:06:08.368Z,2.27
2023-04-05T06:08:34.811Z,2.29
2023-04-05T06:11:05.045Z,2.50
2023-04-05T06:13:31.361Z,2.83
2023-04-05T06:15:57.950Z,2.95
2023-04-05T06:18:24.393Z,3.08
2023-04-05T06:20:50.998Z,3.04
2023-04-05T06:23:17.393Z,3.26
2023-04-05T06:25:43.973Z,3.45
2023-04-05T06:28:10.524Z,3.57
2023-04-05T06:30:37.217Z,3.71
2023-04-05T06:33:03.866Z,3.84
2023-04-05T06:35:30.588Z,3.98
2023-04-05T06:37:57.111Z,3.92
2023-04-05T06:40:23.597Z,4.24
2023-04-05T06:42:50.070Z,4.53
2023-04-05T06:45:16.725Z,4.60
2023-04-05T06:47:43.293Z,5.03
2023-04-05T06:50:10.535Z,5.31
2023-04-05T06:52:39.122Z,5.61
2023-04-05T06:55:06.435Z,5.89
2023-04-05T06:57:32.929Z,6.17
2023-04-05T06:59:59.411Z,6.46
2023-04-05T07:02:26.068Z,6.54
2023-04-05T07:04:53.315Z,6.84
2023-04-05T07:07:19.776Z,7.00
2023-04-05T07:09:46.248Z,7.10
2023-04-05T07:12:12.796Z,7.34
2023-04-05T07:14:39.454Z,7.47
2023-04-05T07:17:07.033Z,7.46
2023-04-05T07:19:33.916Z,7.67
2023-04-05T07:22:01.123Z,7.75
2023-04-05T07:24:27.583Z,7.80
2023-04-05T07:26:54.304Z,7.69
2023-04-05T07:29:20.913Z,7.15
2023-04-05T07:31:47.353Z,7.92
2023-04-05T07:34:14.044Z,8.08
2023-04-05T07:36:40.965Z,8.08
2023-04-05T07:39:07.530Z,8.58
2023-04-05T07:41:35.531Z,8.71
2023-04-05T07:44:02.084Z,8.98
2023-04-05T07:46:29.817Z,9.05
2023-04-05T07:48:56.528Z,9.01
2023-04-05T07:51:22.954Z,9.15
2023-04-05T07:53:49.392Z,9.13
2023-04-05T07:56:15.967Z,9.21
2023-04-05T07:58:42.413Z,8.99
2023-04-05T08:01:10.542Z,9.22
2023-04-05T08:03:39.652Z,9.27
2023-04-05T08:06:11.520Z,9.28
2023-04-05T08:08:40.983Z,9.23
2023-04-05T08:11:07.446Z,9.15
2023-04-05T08:13:34.019Z,9.23
2023-04-05T08:16:02.046Z,9.31
2023-04-05T08:18:29.779Z,9.35
2023-04-05T08:20:56.707Z,9.38
2023-04-05T08:23:23.164Z,9.42
2023-04-05T08:25:50.075Z,9.40
2023-04-05T08:28:16.559Z,9.37
2023-04-05T08:30:43.229Z,9.32
2023-04-05T08:33:10.036Z,9.29
2023-04-05T08:35:37.221Z,9.21
2023-04-05T08:38:04.876Z,9.16
2023-04-05T08:40:43.907Z,9.15
2023-04-05T08:43:28.515Z,9.05
2023-04-05T08:45:58.816Z,9.21
2023-04-05T08:48:28.863Z,9.34
2023-04-05T08:50:55.863Z,9.16
2023-04-05T08:53:22.625Z,9.43
2023-04-05T08:55:53.624Z,9.60
2023-04-05T08:58:22.494Z,9.72
2023-04-05T09:00:50.963Z,9.94
2023-04-05T09:03:23.403Z,10.09
2023-04-05T09:05:52.913Z,10.23
2023-04-05T09:08:21.374Z,10.39
2023-04-05T09:10:50.368Z,10.57
2023-04-05T09:13:16.842Z,10.72
2023-04-05T09:15:43.887Z,10.95
2023-04-05T09:18:23.173Z,11.19
2023-04-05T09:21:03.823Z,11.38
2023-04-05T09:23:30.399Z,11.79
2023-04-05T09:25:56.967Z,11.96
2023-04-05T09:28:23.482Z,12.29
2023-04-05T09:30:49.983Z,12.44
2023-04-05T09:33:21.019Z,12.99
2023-04-05T09:35:51.392Z,13.18
2023-04-05T09:38:17.893Z,13.45
2023-04-05T09:40:46.508Z,13.79
2023-04-05T09:43:33.672Z,14.06
2023-04-05T09:46:00.454Z,14.17
2023-04-05T09:48:57.605Z,14.63
2023-04-05T09:51:24.252Z,14.56
2023-04-05T09:54:00.526Z,14.64
2023-04-05T09:56:28.486Z,14.64
2023-04-05T09:59:16.987Z,14.23
2023-04-05T10:01:51.263Z,14.90
2023-04-05T10:04:19.603Z,14.93
2023-04-05T10:06:46.081Z,15.17
2023-04-05T10:09:15.096Z,15.20
2023-04-05T10:11:43.893Z,14.97
2023-04-05T10:14:10.621Z,14.75
2023-04-05T10:17:10.276Z,14.42
2023-04-05T10:20:07.269Z,14.29
2023-04-05T10:22:39.177Z,14.00
2023-04-05T10:25:12.937Z,14.11
2023-04-05T10:27:46.973Z,14.17
2023-04-05T10:30:15.650Z,14.23
2023-04-05T10:33:01.786Z,14.47
2023-04-05T10:35:40.346Z,14.84
2023-04-05T10:38:06.904Z,15.12
2023-04-05T10:40:35.038Z,15.37
2023-04-05T10:43:03.825Z,15.55
2023-04-05T10:45:35.148Z,15.56
2023-04-05T10:48:34.222Z,15.99
2023-04-05T10:51:01.712Z,15.88
2023-04-05T10:53:30.688Z,15.69
2023-04-05T10:55:58.322Z,15.97
2023-04-05T10:58:26.856Z,15.87
2023-04-05T11:00:54.692Z,15.70
2023-04-05T11:03:51.393Z,15.41
2023-04-05T11:06:24.021Z,15.03
2023-04-05T11:08:57.065Z,14.80
2023-04-05T11:11:24.973Z,14.59
2023-04-05T11:13:56.963Z,14.48
2023-04-05T11:16:38.563Z,14.18
2023-04-05T11:19:05.243Z,14.18
2023-04-05T11:21:31.888Z,14.05
2023-04-05T11:24:08.226Z,13.93
2023-04-05T11:26:40.449Z,13.80
2023-04-05T11:29:07.847Z,13.77
2023-04-05T11:31:34.387Z,13.85
2023-04-05T11:34:12.761Z,14.12
2023-04-05T11:36:45.837Z,14.57
2023-04-05T11:39:18.387Z,14.92
2023-04-05T11:41:52.670Z,15.19
2023-04-05T11:44:19.518Z,15.23
2023-04-05T11:46:46.875Z,15.23
2023-04-05T11:49:14.231Z,15.85
2023-04-05T11:51:48.496Z,15.99
2023-04-05T11:54:27.670Z,16.04
2023-04-05T11:56:54.054Z,16.12
2023-04-05T11:59:21.548Z,15.99
2023-04-05T12:01:58.357Z,15.69
2023-04-05T12:04:24.786Z,15.73
2023-04-05T12:07:09.170Z,15.61
2023-04-05T12:09:35.871Z,15.28
2023-04-05T12:12:02.755Z,14.87
2023-04-05T12:14:29.499Z,14.64
2023-04-05T12:16:55.888Z,14.28
2023-04-05T12:19:22.893Z,14.14
2023-04-05T12:21:49.373Z,13.69
2023-04-05T12:24:15.923Z,13.73
2023-04-05T12:26:42.936Z,13.62
2023-04-05T12:29:09.419Z,13.34
2023-04-05T12:31:41.321Z,13.24
2023-04-05T12:34:09.835Z,13.18
2023-04-05T12:36:37.339Z,13.03
2023-04-05T12:39:07.780Z,12.93
2023-04-05T12:41:35.141Z,12.76
2023-04-05T12:44:27.992Z,12.74
2023-04-05T12:47:00.690Z,12.69
2023-04-05T12:49:27.807Z,12.75
2023-04-05T12:51:54.207Z,13.09
2023-04-05T12:54:23.032Z,13.48
2023-04-05T12:56:54.457Z,13.88
2023-04-05T12:59:22.056Z,14.18
2023-04-05T13:01:48.904Z,14.57
2023-04-05T13:04:16.857Z,14.90
2023-04-05T13:06:46.996Z,15.34
2023-04-05T13:09:13.454Z,15.77
2023-04-05T13:11:39.896Z,16.04
2023-04-05T13:14:06.371Z,16.37
2023-04-05T13:16:32.873Z,16.73
2023-04-05T13:19:09.196Z,16.85
2023-04-05T13:21:35.883Z,17.18
2023-04-05T13:24:02.939Z,17.29
2023-04-05T13:26:29.808Z,17.36
2023-04-05T13:28:56.281Z,17.11
2023-04-05T13:31:22.757Z,16.82
2023-04-05T13:33:49.235Z,16.43
2023-04-05T13:36:18.329Z,15.83
2023-04-05T13:38:44.732Z,15.53
2023-04-05T13:41:11.364Z,15.33
2023-04-05T13:43:37.953Z,15.03
2023-04-05T13:46:04.647Z,14.73
2023-04-05T13:48:31.371Z,14.43
2023-04-05T13:50:57.881Z,14.13
2023-04-05T13:53:26.019Z,13.79
2023-04-05T13:55:53.724Z,13.25
2023-04-05T13:58:20.311Z,13.40
2023-04-05T14:00:47.314Z,13.20
2023-04-05T14:03:13.848Z,13.03
2023-04-05T14:05:40.295Z,12.82
2023-04-05T14:08:06.935Z,12.68
2023-04-05T14:10:33.478Z,12.49
2023-04-05T14:13:00.178Z,12.64
2023-04-05T14:15:27.804Z,12.64
2023-04-05T14:17:54.362Z,12.55
2023-04-05T14:20:21.054Z,12.61
2023-04-05T14:22:47.594Z,12.55
2023-04-05T14:25:14.195Z,12.72
2023-04-05T14:27:42.414Z,12.60
2023-04-05T14:30:11.096Z,12.84
2023-04-05T14:32:37.920Z,12.78
2023-04-05T14:35:04.690Z,12.68
2023-04-05T14:37:31.225Z,12.78
2023-04-05T14:39:57.684Z,12.80
2023-04-05T14:42:31.314Z,12.73
2023-04-05T14:45:04.215Z,12.93
2023-04-05T14:47:31.097Z,12.96
2023-04-05T14:49:57.718Z,13.01
2023-04-05T14:52:24.316Z,12.76
2023-04-05T14:54:51.083Z,13.02
2023-04-05T14:57:17.649Z,13.00
2023-04-05T14:59:44.195Z,12.80
2023-04-05T15:02:11.385Z,12.79
2023-04-05T15:04:38.035Z,12.67
2023-04-05T15:07:04.504Z,12.67
2023-04-05T15:09:31.131Z,12.65
2023-04-05T15:11:57.666Z,12.36
2023-04-05T15:14:31.690Z,12.49
2023-04-05T15:16:59.001Z,12.48
2023-04-05T15:19:25.740Z,12.44
2023-04-05T15:21:52.289Z,12.37
2023-04-05T15:24:18.846Z,12.44
2023-04-05T15:26:45.442Z,12.45
2023-04-05T15:29:11.973Z,12.38
2023-04-05T15:31:39.403Z,12.16
2023-04-05T15:34:08.280Z,12.48
2023-04-05T15:36:36.157Z,12.32
2023-04-05T15:39:04.839Z,12.41
2023-04-05T15:41:33.800Z,12.52
2023-04-05T15:44:01.199Z,12.53
2023-04-05T15:46:29.147Z,12.54
2023-04-05T15:48:56.142Z,12.56
2023-04-05T15:51:22.877Z,12.54
2023-04-05T15:53:49.615Z,12.40
2023-04-05T15:56:16.201Z,12.64
2023-04-05T15:58:42.794Z,12.63
2023-04-05T16:01:09.374Z,12.69
2023-04-05T16:03:36.169Z,12.72
2023-04-05T16:06:02.895Z,12.78
2023-04-05T16:08:29.645Z,13.04
2023-04-05T16:10:57.037Z,13.22
2023-04-05T16:13:23.884Z,13.52
2023-04-05T16:15:50.565Z,13.45
2023-04-05T16:18:19.492Z,14.00
2023-04-05T16:20:45.992Z,13.96
2023-04-05T16:23:12.542Z,14.08
2023-04-05T16:25:39.057Z,14.46
2023-04-05T16:28:06.914Z,14.41
2023-04-05T16:30:33.589Z,14.51
2023-04-05T16:33:00.162Z,14.36
2023-04-05T16:35:26.669Z,14.11
2023-04-05T16:37:53.231Z,13.85
2023-04-05T16:40:19.726Z,13.30
2023-04-05T16:42:46.176Z,13.28
2023-04-05T16:45:12.640Z,12.81
2023-04-05T16:47:39.243Z,12.76
2023-04-05T16:50:06.581Z,12.33
2023-04-05T16:52:33.062Z,12.36
2023-04-05T16:54:59.613Z,11.94
2023-04-05T16:57:26.317Z,12.08
2023-04-05T16:59:53.015Z,11.96
2023-04-05T17:02:19.638Z,11.70
2023-04-05T17:04:46.960Z,11.76
2023-04-05T17:07:13.492Z,11.63
2023-04-05T17:09:39.969Z,11.56
2023-04-05T17:12:06.611Z,11.39
2023-04-05T17:14:35.748Z,11.35
2023-04-05T17:17:02.314Z,11.25
2023-04-05T17:19:28.998Z,10.89
2023-04-05T17:21:55.654Z,11.05
2023-04-05T17:24:22.368Z,11.01
2023-04-05T17:26:48.966Z,10.96
2023-04-05T17:29:17.568Z,10.92
2023-04-05T17:31:44.644Z,10.90
2023-04-05T17:34:13.421Z,10.38
2023-04-05T17:36:40.291Z,10.76
2023-04-05T17:39:07.190Z,10.77
2023-04-05T17:41:33.879Z,10.74
2023-04-05T17:44:00.400Z,10.72
2023-04-05T17:46:39.696Z,10.66
2023-04-05T17:49:08.116Z,10.64
2023-04-05T17:51:34.662Z,10.59
2023-04-05T17:54:01.432Z,10.49
2023-04-05T17:56:27.928Z,10.55
2023-04-05T17:58:54.395Z,10.49
2023-04-05T18:01:21.322Z,10.48
2023-04-05T18:03:47.981Z,10.46
2023-04-05T18:06:16.407Z,10.41
2023-04-05T18:08:42.975Z,10.27
2023-04-05T18:11:09.436Z,10.20
2023-04-05T18:13:36.148Z,10.34
2023-04-05T18:16:02.791Z,10.17
2023-04-05T18:18:29.374Z,9.94
2023-04-05T18:20:56.420Z,10.26
2023-04-05T18:23:24.775Z,10.13
2023-04-05T18:25:53.475Z,10.18
2023-04-05T18:28:23.180Z,10.18
2023-04-05T18:30:51.114Z,10.09
2023-04-05T18:33:18.251Z,10.13
2023-04-05T18:35:51.868Z,10.06
2023-04-05T18:38:19.470Z,10.01
2023-04-05T18:40:46.011Z,10.03
2023-04-05T18:43:12.796Z,10.00
2023-04-05T18:45:39.558Z,9.96
2023-04-05T18:48:06.287Z,9.91
2023-04-05T18:50:32.969Z,9.83
2023-04-05T18:52:59.461Z,9.71
2023-04-05T18:55:26.027Z,9.49
2023-04-05T18:57:52.508Z,9.70
2023-04-05T19:00:19.333Z,9.64
2023-04-05T19:02:45.898Z,9.55
2023-04-05T19:05:12.610Z,9.46
2023-04-05T19:07:39.291Z,9.40
2023-04-05T19:10:06.799Z,9.32
2023-04-05T19:12:33.307Z,9.23
2023-04-05T19:14:59.852Z,9.12
2023-04-05T19:17:26.565Z,9.05
2023-04-05T19:19:53.090Z,8.87
2023-04-05T19:22:19.522Z,8.74
2023-04-05T19:24:46.119Z,8.69
2023-04-05T19:27:12.688Z,8.60
2023-04-05T19:29:39.376Z,8.47
2023-04-05T19:32:06.934Z,8.08
2023-04-05T19:34:33.484Z,8.18
2023-04-05T19:37:00.858Z,7.95
2023-04-05T19:39:27.509Z,7.70
2023-04-05T19:41:54.059Z,7.68
2023-04-05T19:44:48.589Z,7.52
2023-04-05T19:47:18.472Z,7.20
2023-04-05T19:49:45.389Z,7.11
2023-04-05T19:52:33.364Z,6.99
2023-04-05T19:55:00.344Z,6.84
2023-04-05T19:57:27.780Z,6.65
2023-04-05T19:59:54.649Z,6.52
2023-04-05T20:02:37.089Z,6.43
2023-04-05T20:05:33.977Z,6.28
2023-04-05T20:08:00.532Z,5.73
2023-04-05T20:10:41.117Z,5.96
2023-04-05T20:13:08.280Z,5.93
2023-04-05T20:15:37.000Z,5.84
2023-04-05T20:18:08.701Z,5.73
2023-04-05T20:20:36.458Z,5.56
2023-04-05T20:23:06.946Z,5.52
2023-04-05T20:25:43.169Z,5.34
2023-04-05T20:28:36.445Z,5.35
2023-04-05T20:31:06.999Z,5.23
2023-04-05T20:33:44.251Z,5.15
2023-04-05T20:36:17.546Z,5.07
2023-04-05T20:38:45.934Z,5.00
2023-04-05T20:41:13.936Z,4.91
2023-04-05T20:43:41.883Z,4.88
2023-04-05T20:46:08.645Z,4.66
2023-04-05T20:48:36.411Z,4.79
2023-04-05T20:51:06.934Z,4.58
2023-04-05T20:53:34.165Z,4.62
2023-04-05T20:56:00.692Z,4.69
2023-04-05T20:58:27.796Z,4.65
2023-04-05T21:00:54.949Z,4.61
2023-04-05T21:03:21.985Z,4.60
2023-04-05T21:05:48.967Z,4.50
2023-04-05T21:08:16.261Z,4.34
2023-04-05T21:10:42.851Z,4.52
2023-04-05T21:13:09.354Z,4.46
2023-04-05T21:15:36.116Z,4.50
2023-04-05T21:18:04.445Z,4.42
2023-04-05T21:20:31.605Z,4.37
2023-04-05T21:22:58.779Z,4.38
2023-04-05T21:25:25.550Z,4.16
2023-04-05T21:27:52.243Z,4.26
2023-04-05T21:30:18.934Z,4.22
2023-04-05T21:32:45.515Z,4.21
2023-04-05T21:35:12.165Z,4.04
2023-04-05T21:37:38.705Z,4.21
2023-04-05T21:40:05.826Z,4.17
2023-04-05T21:42:32.946Z,4.13
2023-04-05T21:44:59.612Z,4.19
2023-04-05T21:47:26.087Z,4.14
2023-04-05T21:49:52.849Z,4.15
2023-04-05T21:52:19.419Z,4.01
2023-04-05T21:54:46.309Z,4.00
2023-04-05T21:57:12.808Z,4.06
2023-04-05T21:59:39.441Z,3.96
2023-04-05T22:02:07.378Z,3.70
2023-04-05T22:04:34.878Z,3.95
2023-04-05T22:07:01.330Z,3.85
2023-04-05T22:09:31.561Z,3.85
2023-04-05T22:11:58.668Z,3.88
2023-04-05T22:14:26.365Z,3.77
2023-04-05T22:16:53.439Z,3.71
2023-04-05T22:19:21.277Z,3.64
2023-04-05T22:21:47.931Z,3.61
2023-04-05T22:24:14.801Z,3.44
2023-04-05T22:26:42.221Z,3.28
2023-04-05T22:29:08.952Z,3.39
2023-04-05T22:31:35.985Z,3.35
2023-04-05T22:34:02.493Z,3.31
2023-04-05T22:36:29.057Z,3.26
2023-04-05T22:38:55.817Z,3.19
2023-04-05T22:41:22.278Z,3.07
2023-04-05T22:43:48.802Z,3.05
2023-04-05T22:46:15.346Z,3.00
2023-04-05T22:48:44.321Z,2.95
2023-04-05T22:51:11.165Z,2.80
2023-04-05T22:53:37.663Z,2.80
2023-04-05T22:56:04.230Z,2.76
2023-04-05T22:58:32.714Z,2.59
2023-04-05T23:00:59.633Z,2.75
2023-04-05T23:03:26.545Z,2.71
2023-04-05T23:05:52.987Z,2.68
2023-04-05T23:08:19.491Z,2.60
2023-04-05T23:10:47.000Z,2.34
2023-04-05T23:13:13.530Z,2.53
2023-04-05T23:15:40.070Z,2.52
2023-04-05T23:18:06.668Z,2.46
2023-04-05T23:20:33.130Z,2.44
2023-04-05T23:23:00.207Z,2.38
2023-04-05T23:25:26.786Z,2.20
2023-04-05T23:27:54.455Z,2.32
2023-04-05T23:30:21.112Z,2.28
2023-04-05T23:32:47.629Z,2.25
2023-04-05T23:35:15.395Z,1.96
2023-04-05T23:37:41.873Z,2.15
2023-04-05T23:40:09.011Z,2.14
2023-04-05T23:42:35.475Z,2.09
2023-04-05T23:45:04.176Z,1.97
2023-04-05T23:47:30.902Z,1.88
2023-04-05T23:49:57.452Z,2.00
2023-04-05T23:52:23.954Z,1.93
2023-04-05T23:54:50.656Z,1.83
2023-04-05T23:57:17.145Z,1.85
2023-04-05T23:59:43.683Z,1.81
